Time;durP1;ratioP1;P1;durP2;ratioP2;P2;SDS_P1;SDS_P2;PMS_P1;PMS_P2;Temp;Humidity;BMP_temperature;BMP_pressure;BME280_temperature;BME280_humidity;BME280_pressure;Samples;Min_cycle;Max_cycle;Signal;HPM_P1;HPM_P2
2023/07/23 00:01:32;;;;;;;;;;;18.50;99.90;;;;;;6110914;23;19932;-71
2023/07/23 00:03:57;;;;;;;;;;;18.40;99.90;;;;;;6114254;23;19929;-71
2023/07/23 00:06:23;;;;;;;;;;;18.30;99.90;;;;;;6111193;23;19928;-71
2023/07/23 00:08:48;;;;;;;;;;;18.20;99.90;;;;;;6111589;23;19942;-70
2023/07/23 00:11:14;;;;;;;;;;;18.30;99.90;;;;;;6112085;23;19950;-69
2023/07/23 00:13:39;;;;;;;;;;;18.30;99.90;;;;;;6112654;23;20356;-69
2023/07/23 00:16:05;;;;;;;;;;;18.40;99.90;;;;;;6111996;23;19929;-69
2023/07/23 00:18:30;;;;;;;;;;;18.40;99.90;;;;;;6112596;23;19926;-70
2023/07/23 00:20:56;;;;;;;;;;;18.50;99.90;;;;;;6112065;23;19928;-69
2023/07/23 00:23:21;;;;;;;;;;;18.50;99.90;;;;;;6112413;23;19932;-69
2023/07/23 00:25:47;;;;;;;;;;;18.30;99.90;;;;;;6111076;23;20404;-70
2023/07/23 00:28:12;;;;;;;;;;;18.10;99.90;;;;;;6112085;23;19935;-71
2023/07/23 00:30:38;;;;;;;;;;;18.00;99.90;;;;;;6110574;23;19929;-71
2023/07/23 00:33:04;;;;;;;;;;;17.90;99.90;;;;;;6111247;23;19996;-70
2023/07/23 00:35:30;;;;;;;;;;;17.80;99.90;;;;;;6112223;23;19943;-70
2023/07/23 00:37:55;;;;;;;;;;;17.70;99.90;;;;;;6113280;23;20019;-71
2023/07/23 00:40:21;;;;;;;;;;;17.70;99.90;;;;;;6113614;23;19971;-71
2023/07/23 00:42:46;;;;;;;;;;;17.50;99.90;;;;;;6108900;23;20301;-71
2023/07/23 00:45:12;;;;;;;;;;;17.40;99.90;;;;;;6110004;23;19974;-70
2023/07/23 00:47:38;;;;;;;;;;;17.40;99.90;;;;;;6112377;23;19955;-71
2023/07/23 00:50:03;;;;;;;;;;;17.40;99.90;;;;;;6110990;23;19956;-71
2023/07/23 00:52:29;;;;;;;;;;;17.40;99.90;;;;;;6111355;23;20005;-70
2023/07/23 00:54:55;;;;;;;;;;;17.40;99.90;;;;;;6113071;23;19932;-71
2023/07/23 00:57:20;;;;;;;;;;;17.30;99.90;;;;;;6111961;23;19925;-71
2023/07/23 00:59:46;;;;;;;;;;;17.20;99.90;;;;;;6110733;23;19967;-71
2023/07/23 01:02:11;;;;;;;;;;;17.20;99.90;;;;;;6112589;23;19924;-71
2023/07/23 01:04:37;;;;;;;;;;;17.10;99.90;;;;;;6112406;23;20412;-71
2023/07/23 01:07:05;;;;;;;;;;;17.10;99.90;;;;;;6111537;23;20012;-71
2023/07/23 01:09:31;;;;;;;;;;;17.00;99.90;;;;;;6110570;23;19929;-71
2023/07/23 01:11:57;;;;;;;;;;;17.00;99.90;;;;;;6114768;23;19952;-70
2023/07/23 01:14:22;;;;;;;;;;;16.90;99.90;;;;;;6113814;23;20027;-71
2023/07/23 01:16:48;;;;;;;;;;;16.90;99.90;;;;;;6112284;23;20007;-71
2023/07/23 01:19:15;;;;;;;;;;;16.90;99.90;;;;;;6114352;23;19923;-70
2023/07/23 01:21:40;;;;;;;;;;;16.90;99.90;;;;;;6111959;23;20132;-71
2023/07/23 01:24:06;;;;;;;;;;;16.90;99.90;;;;;;6113265;23;19955;-71
2023/07/23 01:26:31;;;;;;;;;;;16.80;99.90;;;;;;6112346;23;19929;-70
2023/07/23 01:28:57;;;;;;;;;;;16.90;99.90;;;;;;6112865;23;19932;-70
2023/07/23 01:31:22;;;;;;;;;;;17.00;99.90;;;;;;6112142;23;19997;-71
2023/07/23 01:33:48;;;;;;;;;;;17.00;99.90;;;;;;6113457;23;19950;-71
2023/07/23 01:36:14;;;;;;;;;;;17.00;99.90;;;;;;6113909;23;20011;-70
2023/07/23 01:38:39;;;;;;;;;;;17.00;99.90;;;;;;6114145;23;20279;-69
2023/07/23 01:41:05;;;;;;;;;;;16.90;99.90;;;;;;6114889;23;20030;-69
2023/07/23 01:43:31;;;;;;;;;;;16.80;99.90;;;;;;6110838;23;19963;-69
2023/07/23 01:45:56;;;;;;;;;;;16.80;99.90;;;;;;6110627;23;20259;-69
2023/07/23 01:48:22;;;;;;;;;;;16.80;99.90;;;;;;6111876;23;19928;-70
2023/07/23 01:50:48;;;;;;;;;;;16.80;99.90;;;;;;6111904;23;20426;-69
2023/07/23 01:53:13;;;;;;;;;;;16.80;99.90;;;;;;6114992;23;19929;-70
2023/07/23 01:55:39;;;;;;;;;;;16.70;99.90;;;;;;6108105;23;20007;-68
2023/07/23 01:58:05;;;;;;;;;;;16.70;99.90;;;;;;6114388;23;19944;-70
2023/07/23 02:00:30;;;;;;;;;;;16.70;99.90;;;;;;6109508;23;20266;-70
2023/07/23 02:02:56;;;;;;;;;;;16.60;99.90;;;;;;6110361;23;20319;-71
2023/07/23 02:05:22;;;;;;;;;;;16.70;99.90;;;;;;6110583;23;19934;-71
2023/07/23 02:07:47;;;;;;;;;;;16.60;99.90;;;;;;6113958;23;19924;-71
2023/07/23 02:10:13;;;;;;;;;;;16.60;99.90;;;;;;6112838;23;20010;-71
2023/07/23 02:12:38;;;;;;;;;;;16.50;99.90;;;;;;6113632;23;19951;-70
2023/07/23 02:15:04;;;;;;;;;;;16.50;99.90;;;;;;6113038;23;20316;-70
2023/07/23 02:17:30;;;;;;;;;;;16.50;99.90;;;;;;6111570;23;19927;-70
2023/07/23 02:19:55;;;;;;;;;;;16.50;99.90;;;;;;6113043;23;20288;-71
2023/07/23 02:22:21;;;;;;;;;;;16.50;99.90;;;;;;6115805;23;20450;-71
2023/07/23 02:24:46;;;;;;;;;;;16.50;99.90;;;;;;6111787;23;19930;-71
2023/07/23 02:27:13;;;;;;;;;;;16.50;99.90;;;;;;6111617;23;20016;-71
2023/07/23 02:29:38;;;;;;;;;;;16.50;99.90;;;;;;6113457;23;19922;-70
2023/07/23 02:32:05;;;;;;;;;;;16.50;99.90;;;;;;6112700;23;19980;-70
2023/07/23 02:34:31;;;;;;;;;;;16.50;99.90;;;;;;6109646;23;19944;-69
2023/07/23 02:36:56;;;;;;;;;;;16.50;99.90;;;;;;6110971;23;19934;-69
2023/07/23 02:39:22;;;;;;;;;;;16.50;99.90;;;;;;6112518;23;20465;-69
2023/07/23 02:41:47;;;;;;;;;;;16.50;99.90;;;;;;6113323;23;19936;-70
2023/07/23 02:44:13;;;;;;;;;;;16.50;99.90;;;;;;6109682;23;19959;-69
2023/07/23 02:46:39;;;;;;;;;;;16.40;99.90;;;;;;6111932;23;19930;-69
2023/07/23 02:49:04;;;;;;;;;;;16.40;99.90;;;;;;6110384;23;19927;-69
2023/07/23 02:51:30;;;;;;;;;;;16.40;99.90;;;;;;6113215;23;19951;-71
2023/07/23 02:53:56;;;;;;;;;;;16.30;99.90;;;;;;6111860;23;20355;-71
2023/07/23 02:56:21;;;;;;;;;;;16.20;99.90;;;;;;6111957;23;20478;-70
2023/07/23 02:58:47;;;;;;;;;;;16.00;99.90;;;;;;6112560;23;19924;-71
2023/07/23 03:01:12;;;;;;;;;;;16.00;99.90;;;;;;6109874;23;19924;-71
2023/07/23 03:03:38;;;;;;;;;;;15.90;99.90;;;;;;6112944;23;19997;-71
2023/07/23 03:06:06;;;;;;;;;;;15.90;99.90;;;;;;6112211;23;20242;-71
2023/07/23 03:08:31;;;;;;;;;;;16.00;99.90;;;;;;6115244;23;20223;-70
2023/07/23 03:10:57;;;;;;;;;;;16.00;99.90;;;;;;6108885;23;19926;-69
2023/07/23 03:13:22;;;;;;;;;;;16.00;99.90;;;;;;6112195;23;19931;-69
2023/07/23 03:15:48;;;;;;;;;;;16.00;99.90;;;;;;6109699;23;19967;-69
2023/07/23 03:18:13;;;;;;;;;;;15.90;99.90;;;;;;6114660;23;19918;-69
2023/07/23 03:20:39;;;;;;;;;;;15.90;99.90;;;;;;6113769;23;19933;-70
2023/07/23 03:23:04;;;;;;;;;;;15.90;99.90;;;;;;6112619;23;20262;-69
2023/07/23 03:25:30;;;;;;;;;;;15.90;99.90;;;;;;6112548;23;19997;-69
2023/07/23 03:27:59;;;;;;;;;;;15.90;99.90;;;;;;6111376;23;19927;-70
2023/07/23 03:30:27;;;;;;;;;;;15.80;99.90;;;;;;6110232;23;20629;-71
2023/07/23 03:32:53;;;;;;;;;;;15.90;99.90;;;;;;6111963;23;19955;-71
2023/07/23 03:35:19;;;;;;;;;;;15.90;99.90;;;;;;6112366;23;19944;-71
2023/07/23 03:37:45;;;;;;;;;;;15.80;99.90;;;;;;6112850;23;19935;-70
2023/07/23 03:40:11;;;;;;;;;;;15.70;99.90;;;;;;6112437;23;19929;-71
2023/07/23 03:42:36;;;;;;;;;;;15.60;99.90;;;;;;6109595;23;20030;-70
2023/07/23 03:45:02;;;;;;;;;;;15.60;99.90;;;;;;6112252;23;19969;-70
2023/07/23 03:47:27;;;;;;;;;;;15.60;99.90;;;;;;6112307;23;19980;-71
2023/07/23 03:49:53;;;;;;;;;;;15.60;99.90;;;;;;6114008;23;20009;-70
2023/07/23 03:52:18;;;;;;;;;;;15.60;99.90;;;;;;6112846;23;19992;-70
2023/07/23 03:54:44;;;;;;;;;;;15.50;99.90;;;;;;6112902;23;19926;-70
2023/07/23 03:57:10;;;;;;;;;;;15.60;99.90;;;;;;6108801;23;20048;-70
2023/07/23 03:59:40;;;;;;;;;;;15.50;99.90;;;;;;6113689;23;20353;-70
2023/07/23 04:02:05;;;;;;;;;;;15.60;99.90;;;;;;6111971;23;20658;-71
2023/07/23 04:04:31;;;;;;;;;;;15.60;99.90;;;;;;6114187;23;19952;-71
2023/07/23 04:06:57;;;;;;;;;;;15.70;99.90;;;;;;6111644;23;19932;-71
2023/07/23 04:09:22;;;;;;;;;;;15.70;99.90;;;;;;6112620;23;19935;-71
2023/07/23 04:11:48;;;;;;;;;;;15.80;99.90;;;;;;6112874;23;19986;-71
2023/07/23 04:14:13;;;;;;;;;;;15.80;99.90;;;;;;6113495;23;19930;-71
2023/07/23 04:16:39;;;;;;;;;;;16.00;99.90;;;;;;6110026;23;20303;-70
2023/07/23 04:19:04;;;;;;;;;;;16.10;99.90;;;;;;6112267;23;19923;-70
2023/07/23 04:21:30;;;;;;;;;;;16.10;99.90;;;;;;6109929;23;19934;-71
2023/07/23 04:23:57;;;;;;;;;;;16.30;99.90;;;;;;6111337;23;19928;-71
2023/07/23 04:26:22;;;;;;;;;;;16.30;99.90;;;;;;6113371;23;19955;-71
2023/07/23 04:28:49;;;;;;;;;;;16.40;99.90;;;;;;6112130;23;19932;-71
2023/07/23 04:31:14;;;;;;;;;;;16.50;99.90;;;;;;6111669;23;20541;-70
2023/07/23 04:33:40;;;;;;;;;;;16.60;99.90;;;;;;6113433;23;20022;-70
2023/07/23 04:36:08;;;;;;;;;;;16.70;99.90;;;;;;6113730;23;19956;-71
2023/07/23 04:38:34;;;;;;;;;;;16.80;99.90;;;;;;6113843;23;19970;-71
2023/07/23 04:41:00;;;;;;;;;;;16.90;99.90;;;;;;6114891;23;20294;-71
2023/07/23 04:43:25;;;;;;;;;;;17.00;99.90;;;;;;6115603;23;20472;-71
2023/07/23 04:45:51;;;;;;;;;;;17.10;99.90;;;;;;6112181;23;19966;-71
2023/07/23 04:48:16;;;;;;;;;;;17.20;99.90;;;;;;6113403;23;20016;-71
2023/07/23 04:50:42;;;;;;;;;;;17.30;99.90;;;;;;6114043;23;19924;-71
2023/07/23 04:53:08;;;;;;;;;;;17.50;99.90;;;;;;6113942;23;19963;-70
2023/07/23 04:55:34;;;;;;;;;;;17.60;99.90;;;;;;6109739;23;19923;-71
2023/07/23 04:57:59;;;;;;;;;;;17.70;99.90;;;;;;6113673;23;19939;-71
2023/07/23 05:00:25;;;;;;;;;;;17.80;99.90;;;;;;6113957;23;19930;-70
2023/07/23 05:02:50;;;;;;;;;;;17.90;99.90;;;;;;6113950;23;19918;-69
2023/07/23 05:05:16;;;;;;;;;;;18.00;99.90;;;;;;6114337;23;20166;-69
2023/07/23 05:07:41;;;;;;;;;;;18.10;99.90;;;;;;6114745;23;19921;-70
2023/07/23 05:10:07;;;;;;;;;;;18.20;99.90;;;;;;6113782;23;19929;-69
2023/07/23 05:12:32;;;;;;;;;;;18.30;99.90;;;;;;6111855;23;19952;-69
2023/07/23 05:15:11;;;;;;;;;;;18.40;99.90;;;;;;6114064;23;19934;-69
2023/07/23 05:17:37;;;;;;;;;;;18.50;99.90;;;;;;6115076;23;19927;-69
2023/07/23 05:20:05;;;;;;;;;;;18.60;99.90;;;;;;6113361;23;19956;-69
2023/07/23 05:22:31;;;;;;;;;;;18.70;99.90;;;;;;6112874;23;20327;-70
2023/07/23 05:24:57;;;;;;;;;;;18.80;99.90;;;;;;6114185;23;20331;-69
2023/07/23 05:27:22;;;;;;;;;;;18.90;99.90;;;;;;6112321;23;20317;-69
2023/07/23 05:29:48;;;;;;;;;;;19.00;99.90;;;;;;6113842;23;20445;-69
2023/07/23 05:32:13;;;;;;;;;;;19.10;99.90;;;;;;6112694;23;20394;-69
2023/07/23 05:34:39;;;;;;;;;;;19.30;99.90;;;;;;6114314;23;19939;-71
2023/07/23 05:37:04;;;;;;;;;;;19.40;99.90;;;;;;6113318;23;20334;-72
2023/07/23 05:39:30;;;;;;;;;;;19.60;99.90;;;;;;6113502;23;19929;-72
2023/07/23 05:41:55;;;;;;;;;;;19.70;99.90;;;;;;6114247;23;19952;-72
2023/07/23 05:44:21;;;;;;;;;;;19.80;99.90;;;;;;6112607;23;19967;-72
2023/07/23 05:46:46;;;;;;;;;;;19.90;99.90;;;;;;6113106;23;20512;-72
2023/07/23 05:49:12;;;;;;;;;;;20.00;99.90;;;;;;6113918;23;19925;-71
2023/07/23 05:51:37;;;;;;;;;;;20.10;99.90;;;;;;6111574;23;20046;-71
2023/07/23 05:54:03;;;;;;;;;;;20.20;99.90;;;;;;6113093;23;19929;-72
2023/07/23 05:56:29;;;;;;;;;;;20.20;99.90;;;;;;6113429;23;19921;-71
2023/07/23 05:58:55;;;;;;;;;;;20.40;99.90;;;;;;6112570;23;19926;-72
2023/07/23 06:01:20;;;;;;;;;;;20.50;99.90;;;;;;6111588;23;19927;-70
2023/07/23 06:03:46;;;;;;;;;;;20.60;99.90;;;;;;6113817;23;20007;-72
2023/07/23 06:06:11;;;;;;;;;;;20.70;99.90;;;;;;6114981;23;19925;-71
2023/07/23 06:08:37;;;;;;;;;;;20.80;99.90;;;;;;6115185;23;19935;-71
2023/07/23 06:11:02;;;;;;;;;;;20.80;99.90;;;;;;6114293;23;19919;-71
2023/07/23 06:13:28;;;;;;;;;;;20.90;99.90;;;;;;6112511;23;19923;-72
2023/07/23 06:15:53;;;;;;;;;;;21.00;99.90;;;;;;6111210;23;20037;-76
2023/07/23 06:18:19;;;;;;;;;;;21.20;99.90;;;;;;6114396;23;20079;-76
2023/07/23 06:20:44;;;;;;;;;;;21.30;99.90;;;;;;6112349;23;19948;-76
2023/07/23 06:23:10;;;;;;;;;;;21.30;99.90;;;;;;6115071;23;19922;-77
2023/07/23 06:25:35;;;;;;;;;;;21.40;99.90;;;;;;6112833;23;20342;-76
2023/07/23 06:28:01;;;;;;;;;;;21.50;99.90;;;;;;6113195;23;20005;-78
2023/07/23 06:30:27;;;;;;;;;;;21.50;99.90;;;;;;6113115;23;19932;-77
2023/07/23 06:32:52;;;;;;;;;;;21.50;99.90;;;;;;6114773;23;19945;-71
2023/07/23 06:35:18;;;;;;;;;;;21.60;99.90;;;;;;6112531;23;19936;-72
2023/07/23 06:37:43;;;;;;;;;;;21.70;99.90;;;;;;6112286;23;20026;-71
2023/07/23 06:40:09;;;;;;;;;;;21.90;99.90;;;;;;6113056;23;19923;-71
2023/07/23 06:42:34;;;;;;;;;;;22.00;99.90;;;;;;6113287;23;19922;-71
2023/07/23 06:45:00;;;;;;;;;;;22.00;99.90;;;;;;6112208;23;19956;-71
2023/07/23 06:47:25;;;;;;;;;;;22.00;99.90;;;;;;6112397;23;20273;-71
2023/07/23 06:49:51;;;;;;;;;;;22.10;99.90;;;;;;6109201;23;19941;-71
2023/07/23 06:52:16;;;;;;;;;;;22.20;99.90;;;;;;6107737;23;19957;-72
2023/07/23 06:54:42;;;;;;;;;;;22.30;99.90;;;;;;6111608;23;19957;-71
2023/07/23 06:57:08;;;;;;;;;;;22.40;99.90;;;;;;6113534;23;19926;-72
2023/07/23 06:59:34;;;;;;;;;;;22.40;99.90;;;;;;6112144;23;19932;-71
2023/07/23 07:01:59;;;;;;;;;;;22.50;99.90;;;;;;6111286;23;19918;-71
2023/07/23 07:04:25;;;;;;;;;;;22.60;99.90;;;;;;6112824;23;19932;-71
2023/07/23 07:06:50;;;;;;;;;;;22.70;99.90;;;;;;6111028;23;19930;-70
2023/07/23 07:09:16;;;;;;;;;;;22.70;99.90;;;;;;6113558;23;20380;-70
2023/07/23 07:11:42;;;;;;;;;;;22.80;99.90;;;;;;6112266;23;19945;-71
2023/07/23 07:14:07;;;;;;;;;;;22.80;99.90;;;;;;6110723;23;19922;-70
2023/07/23 07:16:33;;;;;;;;;;;22.90;99.90;;;;;;6110849;23;20001;-70
2023/07/23 07:18:58;;;;;;;;;;;23.00;99.90;;;;;;6112254;23;20343;-70
2023/07/23 07:21:24;;;;;;;;;;;23.10;99.90;;;;;;6112847;23;19924;-71
2023/07/23 07:23:49;;;;;;;;;;;23.20;99.90;;;;;;6109654;23;20004;-71
2023/07/23 07:26:15;;;;;;;;;;;23.30;99.90;;;;;;6112750;23;20341;-74
2023/07/23 07:28:40;;;;;;;;;;;23.30;99.90;;;;;;6112026;23;19919;-74
2023/07/23 07:31:06;;;;;;;;;;;23.30;99.90;;;;;;6111911;23;19983;-72
2023/07/23 07:33:31;;;;;;;;;;;23.50;99.90;;;;;;6113129;23;20148;-75
2023/07/23 07:35:58;;;;;;;;;;;23.60;99.90;;;;;;6113140;23;19931;-73
2023/07/23 07:38:25;;;;;;;;;;;23.60;99.90;;;;;;6109722;23;19946;-75
2023/07/23 07:40:51;;;;;;;;;;;23.70;99.90;;;;;;6105828;23;19968;-74
2023/07/23 07:43:17;;;;;;;;;;;23.80;99.90;;;;;;6108261;23;19992;-74
2023/07/23 07:45:46;;;;;;;;;;;23.90;99.90;;;;;;6110109;23;20124;-75
2023/07/23 07:48:11;;;;;;;;;;;24.10;99.90;;;;;;6113423;23;20082;-75
2023/07/23 07:50:37;;;;;;;;;;;24.30;99.90;;;;;;6110095;23;20198;-75
2023/07/23 07:53:02;;;;;;;;;;;24.40;99.90;;;;;;6113485;23;20013;-72
2023/07/23 07:55:28;;;;;;;;;;;24.30;99.90;;;;;;6110295;23;20042;-70
2023/07/23 07:57:53;;;;;;;;;;;24.30;99.90;;;;;;6104445;23;19923;-70
2023/07/23 08:00:19;;;;;;;;;;;24.30;99.90;;;;;;6110968;23;19930;-69
2023/07/23 08:02:45;;;;;;;;;;;24.30;99.90;;;;;;6106556;23;20338;-69
2023/07/23 08:05:11;;;;;;;;;;;24.30;99.90;;;;;;6111389;23;20170;-70
2023/07/23 08:07:37;;;;;;;;;;;24.40;99.90;;;;;;6111172;23;20099;-69
2023/07/23 08:10:02;;;;;;;;;;;24.40;99.90;;;;;;6113150;23;20301;-70
2023/07/23 08:12:28;;;;;;;;;;;24.40;99.90;;;;;;6113877;23;20252;-69
2023/07/23 08:14:55;;;;;;;;;;;24.40;99.90;;;;;;6110663;23;20007;-69
2023/07/23 08:17:21;;;;;;;;;;;24.40;99.90;;;;;;6111328;23;19927;-69
2023/07/23 08:19:46;;;;;;;;;;;24.50;99.90;;;;;;6111913;23;20734;-70
2023/07/23 08:22:12;;;;;;;;;;;24.60;99.90;;;;;;6114975;23;19923;-69
2023/07/23 08:24:37;;;;;;;;;;;24.70;99.90;;;;;;6113637;23;19985;-70
2023/07/23 08:27:05;;;;;;;;;;;24.70;99.90;;;;;;6114729;23;19927;-70
2023/07/23 08:29:33;;;;;;;;;;;24.80;99.90;;;;;;6107384;23;19963;-70
2023/07/23 08:31:59;;;;;;;;;;;24.90;99.90;;;;;;6114279;23;20033;-70
2023/07/23 08:34:26;;;;;;;;;;;24.80;99.90;;;;;;6115700;23;20499;-70
2023/07/23 08:36:51;;;;;;;;;;;24.90;99.90;;;;;;6111208;23;20050;-70
2023/07/23 08:39:17;;;;;;;;;;;24.90;99.90;;;;;;6110961;23;19923;-70
2023/07/23 08:41:48;;;;;;;;;;;25.10;99.90;;;;;;6112461;23;20006;-70
2023/07/23 08:44:23;;;;;;;;;;;25.10;99.90;;;;;;6108115;23;19978;-70
2023/07/23 08:46:49;;;;;;;;;;;25.20;99.90;;;;;;6111331;23;20036;-70
2023/07/23 08:49:17;;;;;;;;;;;25.30;99.90;;;;;;6114794;23;19929;-70
2023/07/23 08:51:46;;;;;;;;;;;25.30;99.90;;;;;;6113415;23;19945;-70
2023/07/23 08:54:13;;;;;;;;;;;25.30;99.90;;;;;;6113523;23;19958;-70
2023/07/23 08:56:40;;;;;;;;;;;25.30;99.90;;;;;;6115091;23;19936;-70
2023/07/23 08:59:06;;;;;;;;;;;25.40;99.90;;;;;;6113135;23;19931;-70
2023/07/23 09:01:33;;;;;;;;;;;25.50;99.90;;;;;;6111122;23;19925;-70
2023/07/23 09:03:59;;;;;;;;;;;25.50;99.90;;;;;;6111670;23;20002;-70
2023/07/23 09:06:27;;;;;;;;;;;25.50;99.90;;;;;;6113769;23;20394;-70
2023/07/23 09:08:53;;;;;;;;;;;25.60;99.90;;;;;;6111463;23;19924;-70
2023/07/23 09:11:18;;;;;;;;;;;25.60;99.90;;;;;;6110903;23;19989;-70
2023/07/23 09:13:44;;;;;;;;;;;25.60;99.90;;;;;;6113704;23;20404;-71
2023/07/23 09:16:09;;;;;;;;;;;25.70;99.90;;;;;;6103402;23;19960;-70
2023/07/23 09:18:41;;;;;;;;;;;25.70;99.90;;;;;;6106174;23;20257;-70
2023/07/23 09:21:06;;;;;;;;;;;25.70;99.90;;;;;;6109471;23;20160;-70
2023/07/23 09:23:32;;;;;;;;;;;25.70;99.90;;;;;;6114407;23;20529;-70
2023/07/23 09:25:58;;;;;;;;;;;25.80;99.90;;;;;;6113662;23;20196;-70
2023/07/23 09:28:24;;;;;;;;;;;25.80;99.90;;;;;;6112336;23;19995;-70
2023/07/23 09:30:54;;;;;;;;;;;25.80;99.90;;;;;;6111134;23;19958;-70
2023/07/23 09:33:19;;;;;;;;;;;25.80;99.90;;;;;;6105722;23;19986;-70
2023/07/23 09:35:45;;;;;;;;;;;25.70;99.90;;;;;;6113016;23;19959;-71
2023/07/23 09:38:13;;;;;;;;;;;25.70;99.90;;;;;;6114401;23;20009;-70
2023/07/23 09:40:40;;;;;;;;;;;25.90;99.90;;;;;;6111402;23;19947;-70
2023/07/23 09:43:05;;;;;;;;;;;25.90;99.90;;;;;;6112614;23;19965;-70
2023/07/23 09:45:35;;;;;;;;;;;26.00;99.90;;;;;;6109323;23;19926;-70
2023/07/23 09:48:01;;;;;;;;;;;26.00;99.90;;;;;;6109536;23;19923;-70
2023/07/23 09:50:27;;;;;;;;;;;26.10;99.90;;;;;;6113386;23;20031;-70
2023/07/23 09:52:53;;;;;;;;;;;26.20;99.90;;;;;;6108721;23;20029;-70
2023/07/23 09:55:19;;;;;;;;;;;26.30;99.90;;;;;;6110959;23;20401;-70
2023/07/23 09:57:47;;;;;;;;;;;26.40;99.90;;;;;;6114518;23;20234;-70
2023/07/23 10:00:13;;;;;;;;;;;26.40;99.90;;;;;;6110694;23;19930;-70
2023/07/23 10:02:39;;;;;;;;;;;26.40;99.90;;;;;;6109342;23;19924;-70
2023/07/23 10:05:06;;;;;;;;;;;26.40;99.90;;;;;;6112938;23;19921;-70
2023/07/23 10:07:32;;;;;;;;;;;26.40;99.90;;;;;;6113954;23;19933;-70
2023/07/23 10:09:58;;;;;;;;;;;26.50;99.90;;;;;;6113128;23;20682;-70
2023/07/23 10:12:24;;;;;;;;;;;26.70;99.90;;;;;;6114990;23;20859;-69
2023/07/23 10:14:49;;;;;;;;;;;26.90;99.90;;;;;;6114681;23;19928;-69
2023/07/23 10:17:15;;;;;;;;;;;26.90;99.90;;;;;;6113765;23;19928;-69
2023/07/23 10:19:42;;;;;;;;;;;27.00;98.50;;;;;;6111281;23;20408;-69
2023/07/23 10:22:07;;;;;;;;;;;27.00;99.90;;;;;;6109085;23;19936;-69
2023/07/23 10:24:37;;;;;;;;;;;27.10;99.80;;;;;;6112099;23;19924;-70
2023/07/23 10:27:09;;;;;;;;;;;27.20;99.70;;;;;;6110659;23;20265;-69
2023/07/23 10:29:34;;;;;;;;;;;27.20;98.90;;;;;;6110994;23;20239;-69
2023/07/23 10:32:35;;;;;;;;;;;27.20;98.50;;;;;;6113534;23;20385;-70
2023/07/23 10:35:02;;;;;;;;;;;27.30;98.60;;;;;;6021450;23;19983;-70
2023/07/23 10:37:27;;;;;;;;;;;27.30;96.50;;;;;;6094121;23;19968;-70
2023/07/23 10:39:55;;;;;;;;;;;27.30;98.10;;;;;;6111368;23;19929;-70
2023/07/23 10:42:37;;;;;;;;;;;27.20;97.50;;;;;;6113096;23;19931;-70
2023/07/23 10:45:11;;;;;;;;;;;27.20;97.30;;;;;;6111057;23;20394;-70
2023/07/23 10:47:37;;;;;;;;;;;27.30;97.60;;;;;;6110125;23;19962;-70
2023/07/23 10:50:10;;;;;;;;;;;27.30;96.40;;;;;;6112626;23;19943;-70
2023/07/23 10:52:36;;;;;;;;;;;27.30;96.20;;;;;;6108984;23;19949;-69
2023/07/23 10:55:02;;;;;;;;;;;27.30;95.40;;;;;;6108019;23;20265;-69
2023/07/23 10:57:28;;;;;;;;;;;27.30;94.50;;;;;;6109737;23;19920;-70
2023/07/23 10:59:53;;;;;;;;;;;27.40;93.30;;;;;;6109331;23;19936;-70
2023/07/23 11:02:25;;;;;;;;;;;27.30;92.00;;;;;;6111661;23;19926;-70
2023/07/23 11:04:51;;;;;;;;;;;27.40;93.40;;;;;;6110428;23;19926;-71
2023/07/23 11:07:27;;;;;;;;;;;27.40;90.70;;;;;;6113299;23;19930;-70
2023/07/23 11:09:56;;;;;;;;;;;27.40;88.60;;;;;;6110383;23;20000;-70
2023/07/23 11:12:24;;;;;;;;;;;27.40;91.00;;;;;;6111159;23;20094;-69
2023/07/23 11:14:53;;;;;;;;;;;27.40;92.50;;;;;;6109850;23;19990;-70
2023/07/23 11:17:18;;;;;;;;;;;27.40;91.90;;;;;;6112106;23;19933;-69
2023/07/23 11:19:44;;;;;;;;;;;27.50;92.00;;;;;;6108995;23;19926;-70
2023/07/23 11:22:12;;;;;;;;;;;27.50;91.40;;;;;;6109548;23;19916;-70
2023/07/23 11:24:40;;;;;;;;;;;27.50;89.30;;;;;;6111915;23;19951;-69
2023/07/23 11:27:05;;;;;;;;;;;27.50;88.60;;;;;;6112255;23;20419;-70
2023/07/23 11:29:31;;;;;;;;;;;27.50;90.50;;;;;;6109995;23;19927;-72
2023/07/23 11:31:57;;;;;;;;;;;27.50;88.50;;;;;;6110626;23;19966;-72
2023/07/23 11:34:23;;;;;;;;;;;27.60;87.90;;;;;;6096803;23;19942;-72
2023/07/23 11:36:52;;;;;;;;;;;27.70;88.80;;;;;;6104055;23;19995;-71
2023/07/23 11:39:18;;;;;;;;;;;27.70;88.00;;;;;;6108452;23;19927;-71
2023/07/23 11:41:44;;;;;;;;;;;27.80;88.00;;;;;;6107282;23;19916;-71
2023/07/23 11:44:10;;;;;;;;;;;27.80;87.70;;;;;;6104237;23;19961;-70
2023/07/23 11:46:40;;;;;;;;;;;27.90;88.00;;;;;;6104034;23;20365;-74
2023/07/23 11:49:06;;;;;;;;;;;27.80;84.80;;;;;;6104358;23;19958;-74
2023/07/23 11:51:32;;;;;;;;;;;27.70;88.60;;;;;;6107210;23;19948;-73
2023/07/23 11:54:02;;;;;;;;;;;27.80;87.70;;;;;;6105031;23;20634;-74
2023/07/23 11:56:30;;;;;;;;;;;27.90;87.10;;;;;;6104867;23;19944;-74
2023/07/23 11:58:55;;;;;;;;;;;27.90;89.60;;;;;;6108373;23;19982;-75
2023/07/23 12:01:21;;;;;;;;;;;28.00;87.30;;;;;;6106004;23;19931;-73
2023/07/23 12:03:46;;;;;;;;;;;28.00;84.30;;;;;;6101944;23;19960;-74
2023/07/23 12:06:13;;;;;;;;;;;27.90;83.10;;;;;;6104124;23;19925;-73
2023/07/23 12:08:39;;;;;;;;;;;27.90;82.90;;;;;;6102142;23;20403;-72
2023/07/23 12:11:11;;;;;;;;;;;28.00;90.30;;;;;;6100613;23;20006;-72
2023/07/23 12:14:07;;;;;;;;;;;28.10;88.50;;;;;;6103543;23;19938;-73
2023/07/23 12:16:32;;;;;;;;;;;28.10;87.20;;;;;;6081609;23;19927;-73
2023/07/23 12:19:08;;;;;;;;;;;28.20;87.30;;;;;;6103815;23;19931;-73
2023/07/23 12:21:38;;;;;;;;;;;28.30;89.80;;;;;;6102739;23;20018;-73
2023/07/23 12:24:22;;;;;;;;;;;28.40;84.80;;;;;;6103833;23;19921;-76
2023/07/23 12:26:50;;;;;;;;;;;28.30;85.90;;;;;;6103494;23;19960;-74
2023/07/23 12:29:17;;;;;;;;;;;28.30;85.60;;;;;;6105242;23;20007;-74
2023/07/23 12:31:43;;;;;;;;;;;28.20;87.50;;;;;;6097407;23;19957;-73
2023/07/23 12:34:10;;;;;;;;;;;28.20;86.90;;;;;;6103969;23;19937;-73
2023/07/23 12:36:35;;;;;;;;;;;28.30;81.50;;;;;;6101015;23;20423;-73
2023/07/23 12:39:01;;;;;;;;;;;28.30;85.60;;;;;;6103308;23;20464;-74
2023/07/23 12:41:27;;;;;;;;;;;28.40;87.90;;;;;;6103800;23;19930;-73
2023/07/23 12:43:52;;;;;;;;;;;28.40;83.60;;;;;;6103580;23;19958;-73
2023/07/23 12:46:18;;;;;;;;;;;28.30;85.10;;;;;;6099671;23;20524;-73
2023/07/23 12:48:46;;;;;;;;;;;28.30;83.30;;;;;;6104503;23;20001;-74
2023/07/23 12:51:12;;;;;;;;;;;28.40;82.00;;;;;;6103658;23;20255;-73
2023/07/23 12:53:37;;;;;;;;;;;28.40;78.70;;;;;;6104602;23;20617;-73
2023/07/23 12:56:03;;;;;;;;;;;28.40;81.70;;;;;;6103684;23;19920;-72
2023/07/23 12:58:29;;;;;;;;;;;28.40;82.90;;;;;;6106133;23;19997;-73
2023/07/23 13:00:54;;;;;;;;;;;28.60;86.40;;;;;;6103132;23;19975;-72
2023/07/23 13:03:20;;;;;;;;;;;28.70;82.80;;;;;;6107387;23;19991;-73
2023/07/23 13:05:45;;;;;;;;;;;28.70;81.70;;;;;;6106521;23;19926;-72
2023/07/23 13:08:11;;;;;;;;;;;28.50;81.50;;;;;;6109068;23;19933;-71
2023/07/23 13:10:37;;;;;;;;;;;28.50;84.00;;;;;;6107972;23;19930;-72
2023/07/23 13:13:03;;;;;;;;;;;28.60;81.80;;;;;;6109910;23;19946;-72
2023/07/23 13:15:29;;;;;;;;;;;28.60;80.50;;;;;;6109530;23;20391;-76
2023/07/23 13:17:54;;;;;;;;;;;28.60;82.60;;;;;;6109133;23;20291;-73
2023/07/23 13:20:20;;;;;;;;;;;28.60;79.10;;;;;;6110271;23;19935;-73
2023/07/23 13:22:46;;;;;;;;;;;28.60;79.50;;;;;;6107476;23;20385;-72
2023/07/23 13:25:12;;;;;;;;;;;28.70;81.20;;;;;;6107354;23;19930;-73
2023/07/23 13:27:37;;;;;;;;;;;28.70;79.90;;;;;;6107221;23;19927;-72
2023/07/23 13:30:03;;;;;;;;;;;28.70;79.10;;;;;;6107978;23;20031;-72
2023/07/23 13:32:29;;;;;;;;;;;28.70;80.80;;;;;;6109838;23;19943;-73
2023/07/23 13:34:54;;;;;;;;;;;28.80;79.10;;;;;;6107765;23;20621;-74
2023/07/23 13:37:20;;;;;;;;;;;28.70;80.30;;;;;;6106170;23;20369;-75
2023/07/23 13:39:46;;;;;;;;;;;28.70;80.50;;;;;;6110211;23;20026;-75
2023/07/23 13:42:12;;;;;;;;;;;28.70;80.50;;;;;;6109808;23;19926;-74
2023/07/23 13:44:38;;;;;;;;;;;28.70;80.40;;;;;;6110984;23;20018;-74
2023/07/23 13:47:04;;;;;;;;;;;28.80;78.90;;;;;;6110730;23;20264;-73
2023/07/23 13:49:29;;;;;;;;;;;28.80;78.80;;;;;;6109069;23;19954;-73
2023/07/23 13:51:55;;;;;;;;;;;28.80;80.50;;;;;;6109924;23;19949;-73
2023/07/23 13:54:21;;;;;;;;;;;28.80;79.30;;;;;;6109102;23;20019;-74
2023/07/23 13:56:47;;;;;;;;;;;28.90;79.50;;;;;;6109392;23;20016;-72
2023/07/23 13:59:13;;;;;;;;;;;28.90;81.00;;;;;;6109306;23;20604;-72
2023/07/23 14:01:39;;;;;;;;;;;28.80;80.20;;;;;;6109759;23;20331;-71
2023/07/23 14:04:05;;;;;;;;;;;28.80;76.40;;;;;;6110150;23;19925;-70
2023/07/23 14:06:30;;;;;;;;;;;28.70;79.30;;;;;;6109107;23;19925;-71
2023/07/23 14:08:56;;;;;;;;;;;28.70;81.20;;;;;;6107841;23;19926;-72
2023/07/23 14:11:22;;;;;;;;;;;28.70;79.10;;;;;;6109058;23;19924;-73